createdAt,value
2017-12-19T00:00:17.735Z,6.12
2017-12-19T00:01:18.019Z,6.16
2017-12-19T00:02:17.759Z,6.16
2017-12-19T00:03:18.042Z,6.2
2017-12-19T00:04:17.785Z,6.12
2017-12-19T00:05:18.067Z,6.12
2017-12-19T00:06:18.080Z,6.11
2017-12-19T00:07:18.085Z,6.14
2017-12-19T00:08:18.109Z,6.14
2017-12-19T00:09:17.832Z,6.12
2017-12-19T00:10:18.133Z,6.09
2017-12-19T00:11:17.579Z,6.16
2017-12-19T00:12:18.142Z,6.14
2017-12-19T00:13:18.155Z,6.11
2017-12-19T00:14:18.162Z,6.12
2017-12-19T00:15:17.898Z,6.12
2017-12-19T00:16:17.911Z,6.12
2017-12-19T00:17:18.205Z,6.09
2017-12-19T00:18:18.205Z,6.17
2017-12-19T00:19:17.947Z,6.14
2017-12-19T00:20:17.676Z,6.16
2017-12-19T00:21:18.242Z,6.11
2017-12-19T00:22:17.978Z,6.14
2017-12-19T00:23:17.986Z,6.12
2017-12-19T00:24:18.001Z,6.12
2017-12-19T00:25:18.289Z,6.17
2017-12-19T00:26:18.020Z,6.16
2017-12-19T00:27:18.311Z,6.16
2017-12-19T00:28:18.049Z,6.12
2017-12-19T00:29:18.330Z,6.12
2017-12-19T00:30:18.118Z,6.17
2017-12-19T00:31:18.353Z,6.22
2017-12-19T00:32:18.365Z,6.14
2017-12-19T00:33:18.100Z,6.11
2017-12-19T00:34:18.109Z,6.12
2017-12-19T00:35:18.503Z,6.12
2017-12-19T00:36:18.136Z,6.07
2017-12-19T00:37:18.472Z,6.08
2017-12-19T00:38:18.427Z,6.12
2017-12-19T00:39:18.442Z,6.12
2017-12-19T00:40:18.459Z,6.11
2017-12-19T00:41:18.463Z,6.07
2017-12-19T00:42:18.195Z,6.19
2017-12-19T00:43:18.550Z,6.19
2017-12-19T00:44:18.226Z,6.14
2017-12-19T00:45:18.563Z,6.08
2017-12-19T00:46:18.247Z,6.19
2017-12-19T00:47:18.535Z,6.2
2017-12-19T00:48:18.546Z,6.14
2017-12-19T00:49:18.273Z,6.17
2017-12-19T00:50:18.619Z,6.12
2017-12-19T00:51:18.307Z,6.12
2017-12-19T00:52:18.592Z,6.11
2017-12-19T00:53:18.596Z,6.11
2017-12-19T00:54:18.608Z,6.12
2017-12-19T00:55:18.619Z,6.12
2017-12-19T00:56:18.631Z,6.02
2017-12-19T00:57:18.655Z,6.19
2017-12-19T00:58:18.378Z,6.05
2017-12-19T00:59:18.670Z,6.19
2017-12-19T01:00:18.673Z,6.07
2017-12-19T01:01:18.689Z,6.08
2017-12-19T01:02:18.708Z,6.07
2017-12-19T01:03:18.485Z,6.08
2017-12-19T01:04:18.720Z,6.07
2017-12-19T01:05:18.507Z,6.08
2017-12-19T01:06:18.462Z,6.11
2017-12-19T01:07:18.753Z,6.05
2017-12-19T01:08:18.490Z,6.04
2017-12-19T01:09:18.780Z,6.08
2017-12-19T01:10:18.836Z,6.17
2017-12-19T01:11:18.846Z,6.07
2017-12-19T01:12:18.254Z,6.14
2017-12-19T01:13:18.544Z,6.07
2017-12-19T01:14:18.830Z,6.02
2017-12-19T01:15:18.841Z,6.07
2017-12-19T01:16:18.579Z,6.12
2017-12-19T01:17:18.862Z,6.14
2017-12-19T01:18:18.881Z,6.09
2017-12-19T01:19:18.608Z,6.16
2017-12-19T01:20:18.898Z,6.05
2017-12-19T01:21:18.908Z,6.11
2017-12-19T01:22:18.923Z,6.05
2017-12-19T01:23:18.935Z,6.05
2017-12-19T01:24:18.666Z,6.07
2017-12-19T01:25:18.678Z,6.07
2017-12-19T01:26:18.412Z,6.05
2017-12-19T01:27:18.699Z,6.04
2017-12-19T01:28:18.993Z,6.11
2017-12-19T01:29:18.996Z,6.09
2017-12-19T01:30:18.508Z,6.11
2017-12-19T01:31:19.019Z,6.09
2017-12-19T01:32:18.753Z,6.07
2017-12-19T01:33:19.040Z,6.07
2017-12-19T01:34:18.787Z,6.09
2017-12-19T01:35:19.113Z,6.07
2017-12-19T01:36:19.075Z,6.09
2017-12-19T01:37:18.812Z,6.09
2017-12-19T01:38:19.104Z,6.09
2017-12-19T01:39:19.114Z,6.07
2017-12-19T01:40:18.894Z,6.01
2017-12-19T01:41:18.857Z,6.04
2017-12-19T01:42:19.147Z,6.02
2017-12-19T01:43:19.157Z,6.04
2017-12-19T01:44:19.164Z,6.08
2017-12-19T01:45:18.946Z,6.02
2017-12-19T01:46:18.634Z,6.05
2017-12-19T01:47:18.645Z,6.02
2017-12-19T01:48:18.933Z,6.07
2017-12-19T01:49:19.221Z,6.08
2017-12-19T01:50:18.960Z,6.08
2017-12-19T01:51:18.966Z,6.02
2017-12-19T01:52:19.259Z,6.02
2017-12-19T01:53:19.262Z,6.02
2017-12-19T01:54:19.272Z,6.12
2017-12-19T01:55:19.111Z,6.02
2017-12-19T01:56:19.019Z,6.05
2017-12-19T01:57:19.311Z,6.07
2017-12-19T01:58:19.319Z,5.97
2017-12-19T01:59:19.332Z,6.01
2017-12-19T02:00:19.391Z,6.09
2017-12-19T02:01:18.802Z,6.04
2017-12-19T02:02:19.085Z,6.05
2017-12-19T02:03:19.102Z,6.01
2017-12-19T02:04:19.115Z,6.05
2017-12-19T02:05:19.394Z,6.09
2017-12-19T02:06:19.413Z,6.02
2017-12-19T02:07:19.140Z,5.97
2017-12-19T02:08:19.156Z,5.99
2017-12-19T02:09:19.450Z,6.05
2017-12-19T02:10:19.177Z,6.05
2017-12-19T02:11:19.187Z,6.02
2017-12-19T02:12:19.202Z,5.99
2017-12-19T02:13:19.490Z,6.02
2017-12-19T02:14:19.498Z,6.09
2017-12-19T02:15:19.233Z,6.01
2017-12-19T02:16:19.249Z,6.09
2017-12-19T02:17:19.536Z,6.01
2017-12-19T02:18:19.543Z,6.04
2017-12-19T02:19:19.557Z,6.04
2017-12-19T02:20:19.611Z,6.09
2017-12-19T02:21:19.572Z,6.01
2017-12-19T02:22:19.316Z,6.08
2017-12-19T02:23:19.323Z,6.01
2017-12-19T02:24:19.329Z,6.09
2017-12-19T02:25:19.343Z,5.98
2017-12-19T02:26:19.631Z,6.09
2017-12-19T02:27:19.371Z,6.09
2017-12-19T02:28:19.374Z,5.98
2017-12-19T02:29:19.671Z,6.09
2017-12-19T02:30:19.734Z,6.01
2017-12-19T02:31:19.684Z,6.02
2017-12-19T02:32:19.701Z,6.01
2017-12-19T02:33:19.707Z,6.09
2017-12-19T02:34:19.722Z,5.98
2017-12-19T02:35:19.505Z,6.01
2017-12-19T02:36:19.748Z,5.99
2017-12-19T02:37:19.477Z,6.07
2017-12-19T02:38:19.769Z,6.01
2017-12-19T02:39:19.505Z,5.98
2017-12-19T02:40:19.788Z,6.02
2017-12-19T02:41:19.519Z,5.94
2017-12-19T02:42:19.528Z,6.01
2017-12-19T02:43:19.823Z,6.02
2017-12-19T02:44:19.554Z,5.99
2017-12-19T02:45:19.563Z,5.94
2017-12-19T02:46:19.855Z,6.16
2017-12-19T02:47:19.584Z,6.05
2017-12-19T02:48:19.870Z,6.01
2017-12-19T02:49:19.882Z,6.01
2017-12-19T02:50:19.620Z,6.02
2017-12-19T02:51:19.908Z,5.99
2017-12-19T02:52:19.916Z,5.99
2017-12-19T02:53:19.663Z,6.11
2017-12-19T02:54:19.941Z,6.11
2017-12-19T02:55:19.691Z,5.97
2017-12-19T02:56:19.411Z,6.01
2017-12-19T02:57:19.701Z,6.01
2017-12-19T02:58:19.715Z,5.98
2017-12-19T02:59:19.722Z,6.02
2017-12-19T03:00:20.003Z,6.04
2017-12-19T03:01:19.742Z,5.97
2017-12-19T03:02:20.031Z,5.94
2017-12-19T03:03:19.765Z,6.05
2017-12-19T03:04:20.051Z,6.05
2017-12-19T03:05:19.788Z,5.94
2017-12-19T03:06:19.799Z,5.98
2017-12-19T03:07:20.082Z,5.98
2017-12-19T03:08:20.097Z,5.98
2017-12-19T03:09:19.828Z,6.05
2017-12-19T03:10:20.117Z,5.99
2017-12-19T03:11:20.130Z,5.94
2017-12-19T03:12:20.143Z,6.02
2017-12-19T03:13:19.878Z,6.01
2017-12-19T03:14:19.885Z,5.98
2017-12-19T03:15:20.170Z,6.07
2017-12-19T03:16:19.905Z,5.99
2017-12-19T03:17:19.917Z,6.08
2017-12-19T03:18:19.929Z,5.94
2017-12-19T03:19:20.217Z,5.99
2017-12-19T03:20:20.233Z,5.99
2017-12-19T03:21:20.252Z,5.98
2017-12-19T03:22:20.249Z,6.12
2017-12-19T03:23:19.983Z,5.98
2017-12-19T03:24:19.995Z,5.93
2017-12-19T03:25:20.288Z,6.04
2017-12-19T03:26:20.290Z,5.91
2017-12-19T03:27:20.325Z,5.97
2017-12-19T03:28:20.315Z,6.02
2017-12-19T03:29:20.053Z,6.04
2017-12-19T03:30:20.347Z,5.99
2017-12-19T03:31:20.366Z,6.05
2017-12-19T03:32:20.082Z,6.04
2017-12-19T03:33:20.373Z,6.02
2017-12-19T03:34:20.105Z,5.99
2017-12-19T03:35:20.119Z,5.97
2017-12-19T03:36:20.400Z,6.02
2017-12-19T03:37:20.415Z,6.01
2017-12-19T03:38:19.874Z,6.02
2017-12-19T03:39:20.160Z,5.99
2017-12-19T03:40:20.170Z,5.93
2017-12-19T03:41:20.462Z,5.93
2017-12-19T03:42:20.472Z,5.94
2017-12-19T03:43:20.488Z,5.9
2017-12-19T03:44:20.526Z,5.98
2017-12-19T03:45:20.503Z,5.93
2017-12-19T03:46:20.236Z,5.97
2017-12-19T03:47:20.524Z,5.91
2017-12-19T03:48:20.540Z,5.94
2017-12-19T03:49:20.549Z,5.94
2017-12-19T03:50:20.560Z,5.89
2017-12-19T03:51:20.567Z,5.94
2017-12-19T03:52:20.636Z,5.99
2017-12-19T03:53:20.597Z,5.91
2017-12-19T03:54:20.598Z,5.84
2017-12-19T03:55:20.614Z,5.89
2017-12-19T03:56:20.395Z,5.9
2017-12-19T03:57:20.635Z,5.94
2017-12-19T03:58:20.367Z,5.94
2017-12-19T03:59:20.661Z,5.9
2017-12-19T04:00:20.392Z,5.94
2017-12-19T04:01:20.689Z,5.89
2017-12-19T04:02:20.697Z,5.89
2017-12-19T04:03:20.424Z,5.86
2017-12-19T04:04:20.157Z,5.93
2017-12-19T04:05:20.171Z,5.91
2017-12-19T04:06:20.731Z,5.87
2017-12-19T04:07:20.744Z,5.94
2017-12-19T04:08:20.754Z,5.93
2017-12-19T04:09:20.765Z,5.9
2017-12-19T04:10:20.512Z,5.98
2017-12-19T04:11:20.837Z,5.91
2017-12-19T04:12:20.799Z,5.9
2017-12-19T04:13:20.809Z,5.93
2017-12-19T04:14:20.545Z,5.89
2017-12-19T04:15:20.558Z,5.97
2017-12-19T04:16:20.567Z,5.87
2017-12-19T04:17:20.572Z,5.91
2017-12-19T04:18:20.593Z,5.89
2017-12-19T04:19:20.878Z,5.87
2017-12-19T04:20:20.885Z,5.9
2017-12-19T04:21:20.669Z,5.89
2017-12-19T04:22:20.908Z,5.94
2017-12-19T04:23:20.916Z,5.9
2017-12-19T04:24:20.929Z,5.83
2017-12-19T04:25:20.663Z,5.91
2017-12-19T04:26:21.002Z,5.9
2017-12-19T04:27:20.965Z,5.99
2017-12-19T04:28:20.431Z,5.94
2017-12-19T04:29:20.983Z,5.93
2017-12-19T04:30:21.002Z,5.87
2017-12-19T04:31:21.055Z,5.98
2017-12-19T04:32:20.745Z,5.89
2017-12-19T04:33:20.752Z,5.93
2017-12-19T04:34:21.041Z,5.9
2017-12-19T04:35:21.048Z,5.91
2017-12-19T04:36:21.110Z,5.91
2017-12-19T04:37:21.080Z,5.89
2017-12-19T04:38:20.529Z,5.86
2017-12-19T04:39:21.093Z,5.87
2017-12-19T04:40:21.162Z,5.98
2017-12-19T04:41:21.172Z,5.97
2017-12-19T04:42:21.124Z,5.89
2017-12-19T04:43:21.136Z,5.89
2017-12-19T04:44:20.595Z,5.89
2017-12-19T04:45:21.159Z,6.01
2017-12-19T04:46:20.897Z,5.89
2017-12-19T04:47:20.907Z,5.91
2017-12-19T04:48:21.185Z,5.9
2017-12-19T04:49:20.647Z,5.9
2017-12-19T04:50:21.213Z,5.93
2017-12-19T04:51:21.272Z,5.87
2017-12-19T04:52:20.959Z,5.91
2017-12-19T04:53:21.264Z,5.9
2017-12-19T04:54:20.992Z,5.91
2017-12-19T04:55:21.276Z,5.9
2017-12-19T04:56:21.332Z,5.84
2017-12-19T04:57:21.014Z,5.83
2017-12-19T04:58:21.301Z,5.87
2017-12-19T04:59:21.307Z,5.87
2017-12-19T05:00:21.320Z,5.87
2017-12-19T05:01:21.334Z,6.01
2017-12-19T05:02:21.349Z,5.98
2017-12-19T05:03:21.080Z,5.94
2017-12-19T05:04:21.363Z,5.93
2017-12-19T05:05:21.099Z,5.97
2017-12-19T05:06:21.446Z,5.94
2017-12-19T05:07:21.397Z,5.89
2017-12-19T05:08:21.409Z,5.9
2017-12-19T05:09:21.428Z,5.86
2017-12-19T05:10:21.430Z,5.9
2017-12-19T05:11:21.442Z,5.99
2017-12-19T05:12:21.173Z,5.97
2017-12-19T05:13:21.461Z,5.89
2017-12-19T05:14:21.232Z,5.93
2017-12-19T05:15:21.219Z,5.86
2017-12-19T05:16:21.216Z,5.87
2017-12-19T05:17:21.229Z,5.93
2017-12-19T05:18:21.514Z,5.89
2017-12-19T05:19:21.526Z,5.86
2017-12-19T05:20:21.544Z,5.9
2017-12-19T05:21:21.553Z,5.89
2017-12-19T05:22:21.011Z,5.9
2017-12-19T05:23:21.292Z,5.89
2017-12-19T05:24:21.306Z,5.91
2017-12-19T05:25:21.318Z,5.93
2017-12-19T05:26:21.652Z,5.93
2017-12-19T05:27:21.620Z,5.9
2017-12-19T05:28:21.353Z,5.86
2017-12-19T05:29:21.358Z,5.87
2017-12-19T05:30:21.373Z,5.87
2017-12-19T05:31:21.723Z,5.91
2017-12-19T05:32:21.391Z,5.9
2017-12-19T05:33:21.738Z,5.94
2017-12-19T05:34:21.418Z,5.9
2017-12-19T05:35:21.421Z,5.91
2017-12-19T05:36:21.769Z,5.89
2017-12-19T05:37:21.723Z,5.89
2017-12-19T05:38:21.734Z,5.86
2017-12-19T05:39:21.748Z,5.84
2017-12-19T05:40:21.481Z,5.9
2017-12-19T05:41:21.489Z,5.93
2017-12-19T05:42:21.777Z,5.87
2017-12-19T05:43:21.514Z,5.89
2017-12-19T05:44:21.521Z,5.93
2017-12-19T05:45:21.260Z,5.93
2017-12-19T05:46:21.820Z,5.9
2017-12-19T05:47:21.838Z,5.9
2017-12-19T05:48:21.576Z,5.9
2017-12-19T05:49:21.852Z,5.86
2017-12-19T05:50:21.589Z,5.89
2017-12-19T05:51:21.876Z,5.87
2017-12-19T05:52:21.333Z,5.93
2017-12-19T05:53:21.898Z,5.97
2017-12-19T05:54:21.914Z,5.93
2017-12-19T05:55:21.925Z,5.9
2017-12-19T05:56:21.982Z,5.87
2017-12-19T05:57:21.943Z,5.91
2017-12-19T05:58:21.953Z,5.86
2017-12-19T05:59:21.963Z,5.9
2017-12-19T06:00:21.978Z,5.94
2017-12-19T06:01:21.707Z,5.89
2017-12-19T06:02:21.720Z,5.84
2017-12-19T06:03:22.007Z,5.9
2017-12-19T06:04:22.087Z,5.89
2017-12-19T06:05:22.026Z,5.9
2017-12-19T06:06:21.536Z,5.87
2017-12-19T06:07:22.050Z,5.9
2017-12-19T06:08:22.057Z,5.91
2017-12-19T06:09:22.069Z,5.84
2017-12-19T06:10:22.078Z,5.84
2017-12-19T06:11:21.817Z,5.86
2017-12-19T06:12:21.550Z,5.84
2017-12-19T06:13:22.110Z,5.9
2017-12-19T06:14:22.126Z,5.84
2017-12-19T06:15:21.863Z,5.86
2017-12-19T06:16:21.870Z,5.9
2017-12-19T06:17:21.880Z,5.87
2017-12-19T06:18:22.170Z,5.86
2017-12-19T06:19:22.182Z,5.87
2017-12-19T06:20:22.186Z,5.9
2017-12-19T06:21:21.647Z,5.73
2017-12-19T06:22:22.213Z,5.87
2017-12-19T06:23:21.943Z,5.87
2017-12-19T06:24:21.680Z,5.87
2017-12-19T06:25:22.252Z,5.87
2017-12-19T06:26:22.311Z,5.86
2017-12-19T06:27:21.991Z,5.82
2017-12-19T06:28:21.724Z,5.9
2017-12-19T06:29:22.008Z,5.86
2017-12-19T06:30:22.297Z,5.86
2017-12-19T06:31:22.310Z,5.86
2017-12-19T06:32:22.322Z,5.87
2017-12-19T06:33:22.532Z,5.82
2017-12-19T06:34:22.347Z,5.86
2017-12-19T06:35:22.074Z,5.87
2017-12-19T06:36:22.358Z,5.89
2017-12-19T06:37:22.100Z,5.89
2017-12-19T06:38:21.833Z,5.9
2017-12-19T06:39:22.394Z,5.83
2017-12-19T06:40:22.405Z,5.84
2017-12-19T06:41:22.416Z,5.86
2017-12-19T06:42:21.875Z,5.83
2017-12-19T06:43:22.449Z,5.89
2017-12-19T06:44:22.448Z,5.87
2017-12-19T06:45:22.184Z,5.86
2017-12-19T06:46:22.471Z,5.87
2017-12-19T06:47:22.482Z,5.86
2017-12-19T06:48:22.490Z,5.87
2017-12-19T06:49:22.500Z,5.89
2017-12-19T06:50:22.237Z,5.89
2017-12-19T06:51:22.524Z,5.89
2017-12-19T06:52:22.260Z,5.89
2017-12-19T06:53:22.568Z,5.93
2017-12-19T06:54:22.278Z,5.89
2017-12-19T06:55:22.227Z,5.89
2017-12-19T06:56:22.333Z,5.87
2017-12-19T06:57:22.651Z,5.93
2017-12-19T06:58:22.620Z,5.9
2017-12-19T06:59:22.608Z,6.01
2017-12-19T07:00:22.068Z,5.93
2017-12-19T07:01:22.638Z,5.89
2017-12-19T07:02:22.650Z,5.91
2017-12-19T07:03:22.101Z,5.97
2017-12-19T07:04:22.672Z,5.9
2017-12-19T07:05:22.671Z,5.87
2017-12-19T07:06:22.692Z,5.86
2017-12-19T07:07:22.696Z,5.93
2017-12-19T07:08:22.724Z,5.93
2017-12-19T07:09:22.731Z,5.89
2017-12-19T07:10:22.728Z,5.99
2017-12-19T07:11:22.809Z,5.89
2017-12-19T07:12:22.471Z,5.91
2017-12-19T07:13:22.487Z,5.93
2017-12-19T07:14:22.771Z,5.9
2017-12-19T07:15:22.793Z,6.01
2017-12-19T07:16:22.519Z,5.99
2017-12-19T07:17:22.528Z,5.9
2017-12-19T07:18:22.778Z,5.87
2017-12-19T07:19:22.826Z,5.9
2017-12-19T07:20:22.837Z,5.9
2017-12-19T07:21:22.848Z,5.91
2017-12-19T07:22:22.582Z,5.83
2017-12-19T07:23:22.866Z,5.94
2017-12-19T07:24:22.607Z,5.89
2017-12-19T07:25:22.620Z,5.87
2017-12-19T07:26:22.931Z,5.84
2017-12-19T07:27:22.914Z,5.93
2017-12-19T07:28:22.646Z,5.97
2017-12-19T07:29:22.940Z,5.94
2017-12-19T07:30:22.943Z,6.01
2017-12-19T07:31:22.956Z,5.97
2017-12-19T07:32:22.692Z,5.9
2017-12-19T07:33:22.982Z,6.04
2017-12-19T07:34:22.990Z,5.98
2017-12-19T07:35:22.445Z,5.93
2017-12-19T07:36:23.004Z,5.87
2017-12-19T07:37:22.745Z,5.99
2017-12-19T07:38:22.754Z,5.97
2017-12-19T07:39:22.771Z,5.97
2017-12-19T07:40:23.063Z,6.02
2017-12-19T07:41:22.789Z,5.99
2017-12-19T07:42:23.132Z,5.97
2017-12-19T07:43:22.811Z,5.93
2017-12-19T07:44:23.096Z,5.94
2017-12-19T07:45:22.836Z,6.04
2017-12-19T07:46:22.845Z,5.9
2017-12-19T07:47:23.177Z,6.02
2017-12-19T07:48:23.144Z,6.02
2017-12-19T07:49:23.147Z,6.02
2017-12-19T07:50:23.166Z,6.02
2017-12-19T07:51:23.173Z,5.93
2017-12-19T07:52:22.908Z,6.07
2017-12-19T07:53:23.193Z,6.04
2017-12-19T07:54:23.205Z,6.01
2017-12-19T07:55:22.938Z,6.02
2017-12-19T07:56:23.232Z,6.07
2017-12-19T07:57:23.011Z,5.99
2017-12-19T07:58:23.248Z,6.01
2017-12-19T07:59:22.983Z,6.07
2017-12-19T08:00:23.270Z,5.99
2017-12-19T08:01:23.010Z,5.99
2017-12-19T08:02:23.380Z,6.02
2017-12-19T08:03:23.304Z,6.08
2017-12-19T08:04:23.036Z,6.04
2017-12-19T08:05:23.051Z,6.02
2017-12-19T08:06:23.058Z,6.04
2017-12-19T08:07:23.398Z,6.04
2017-12-19T08:08:23.081Z,6.09
2017-12-19T08:09:23.368Z,6.09
2017-12-19T08:10:23.389Z,6.17
2017-12-19T08:11:23.114Z,6.16
2017-12-19T08:12:23.463Z,6.09
2017-12-19T08:13:23.157Z,6.14
2017-12-19T08:14:23.508Z,6.14
2017-12-19T08:15:23.436Z,6.14
2017-12-19T08:16:23.446Z,6.11
2017-12-19T08:17:23.180Z,6.07
2017-12-19T08:18:22.914Z,6.16
2017-12-19T08:19:23.483Z,6.16
2017-12-19T08:20:23.489Z,6.12
2017-12-19T08:21:23.500Z,6.16
2017-12-19T08:22:23.512Z,6.17
2017-12-19T08:23:23.584Z,6.2
2017-12-19T08:24:23.551Z,6.17
2017-12-19T08:25:23.267Z,6.24
2017-12-19T08:26:23.283Z,6.17
2017-12-19T08:27:23.291Z,6.27
2017-12-19T08:28:23.579Z,6.24
2017-12-19T08:29:23.589Z,6.27
2017-12-19T08:30:23.606Z,6.26
2017-12-19T08:31:23.060Z,6.26
2017-12-19T08:32:23.625Z,6.24
2017-12-19T08:33:23.358Z,6.28
2017-12-19T08:34:23.643Z,6.24
2017-12-19T08:35:23.377Z,6.31
2017-12-19T08:36:23.664Z,6.24
2017-12-19T08:37:23.400Z,6.27
2017-12-19T08:38:23.699Z,6.26
2017-12-19T08:39:23.703Z,6.24
2017-12-19T08:40:23.708Z,6.24
2017-12-19T08:41:23.501Z,6.35
2017-12-19T08:42:23.765Z,6.31
2017-12-19T08:43:23.756Z,6.31
2017-12-19T08:44:23.755Z,6.3
2017-12-19T08:45:23.768Z,6.3
2017-12-19T08:46:23.781Z,6.31
2017-12-19T08:47:23.789Z,6.39
2017-12-19T08:48:23.521Z,6.35
2017-12-19T08:49:23.537Z,6.36
2017-12-19T08:50:23.543Z,6.39
2017-12-19T08:51:23.837Z,6.38
2017-12-19T08:52:23.569Z,6.39
2017-12-19T08:53:23.855Z,6.3
2017-12-19T08:54:23.879Z,6.3
2017-12-19T08:55:23.880Z,6.36
2017-12-19T08:56:23.892Z,6.33
2017-12-19T08:57:23.621Z,6.35
2017-12-19T08:58:23.916Z,6.48
2017-12-19T08:59:23.643Z,6.35
2017-12-19T09:00:23.659Z,6.35
2017-12-19T09:01:23.948Z,6.33
2017-12-19T09:02:23.713Z,6.38
2017-12-19T09:03:23.970Z,6.31
2017-12-19T09:04:23.699Z,6.44
2017-12-19T09:05:23.710Z,6.52
2017-12-19T09:06:23.999Z,6.44
2017-12-19T09:07:23.758Z,6.44
2017-12-19T09:08:23.790Z,6.48
2017-12-19T09:09:24.026Z,6.44
2017-12-19T09:10:23.765Z,6.48
2017-12-19T09:11:24.053Z,6.52
2017-12-19T09:12:24.114Z,6.48
2017-12-19T09:13:24.071Z,6.49
2017-12-19T09:14:24.087Z,6.57
2017-12-19T09:15:23.821Z,6.54
2017-12-19T09:16:23.836Z,6.57
2017-12-19T09:17:23.846Z,6.51
2017-12-19T09:18:24.141Z,6.52
2017-12-19T09:19:23.868Z,6.54
2017-12-19T09:20:23.880Z,6.54
2017-12-19T09:21:24.167Z,6.52
2017-12-19T09:22:24.175Z,6.56
2017-12-19T09:23:23.918Z,6.57
2017-12-19T09:24:24.203Z,6.49
2017-12-19T09:25:24.214Z,6.6
2017-12-19T09:26:23.947Z,6.46
2017-12-19T09:27:24.230Z,6.59
2017-12-19T09:28:23.968Z,6.56
2017-12-19T09:29:24.260Z,6.62
2017-12-19T09:30:24.266Z,6.56
2017-12-19T09:31:24.277Z,6.62
2017-12-19T09:32:24.290Z,6.57
2017-12-19T09:33:24.349Z,6.67
2017-12-19T09:34:24.313Z,6.63
2017-12-19T09:35:24.323Z,6.57
2017-12-19T09:36:24.339Z,6.63
2017-12-19T09:37:24.076Z,6.62
2017-12-19T09:38:24.409Z,6.67
2017-12-19T09:39:24.369Z,6.59
2017-12-19T09:40:24.106Z,6.57
2017-12-19T09:41:24.116Z,6.66
2017-12-19T09:42:24.125Z,6.74
2017-12-19T09:43:24.461Z,6.66
2017-12-19T09:44:24.428Z,6.64
2017-12-19T09:45:23.886Z,6.6
2017-12-19T09:46:24.449Z,6.7
2017-12-19T09:47:24.457Z,6.6
2017-12-19T09:48:24.470Z,6.62
2017-12-19T09:49:24.483Z,6.66
2017-12-19T09:50:24.507Z,6.7
2017-12-19T09:51:23.962Z,6.67
2017-12-19T09:52:24.446Z,6.69
2017-12-19T09:53:24.256Z,6.69
2017-12-19T09:54:24.538Z,6.67
2017-12-19T09:55:24.573Z,6.69
2017-12-19T09:56:24.289Z,6.7
2017-12-19T09:57:24.571Z,6.64
2017-12-19T09:58:24.586Z,6.74
2017-12-19T09:59:24.598Z,6.64
2017-12-19T10:00:24.616Z,6.75
2017-12-19T10:01:24.617Z,6.69
2017-12-19T10:02:24.634Z,6.72
2017-12-19T10:03:24.645Z,6.78
2017-12-19T10:04:24.721Z,6.67
2017-12-19T10:05:24.671Z,6.74
2017-12-19T10:06:24.640Z,6.75
2017-12-19T10:07:24.687Z,6.79
2017-12-19T10:08:24.661Z,6.75
2017-12-19T10:09:24.410Z,6.72
2017-12-19T10:10:24.707Z,6.7
2017-12-19T10:11:24.429Z,6.75
2017-12-19T10:12:24.453Z,6.81
2017-12-19T10:13:24.721Z,6.78
2017-12-19T10:14:24.973Z,6.79
2017-12-19T10:15:24.755Z,6.81
2017-12-19T10:16:24.756Z,6.81
2017-12-19T10:17:24.767Z,6.81
2017-12-19T10:18:24.740Z,6.81
2017-12-19T10:19:24.598Z,6.84
2017-12-19T10:20:24.850Z,6.78
2017-12-19T10:21:24.586Z,6.84
2017-12-19T10:22:24.871Z,6.88
2017-12-19T10:23:24.869Z,6.78
2017-12-19T10:24:24.984Z,6.82
2017-12-19T10:25:24.616Z,6.84
2017-12-19T10:26:24.915Z,6.87
2017-12-19T10:27:24.918Z,6.87
2017-12-19T10:28:24.655Z,6.96
2017-12-19T10:29:24.663Z,6.93
2017-12-19T10:30:24.948Z,6.92
2017-12-19T10:31:24.684Z,6.97
2017-12-19T10:32:24.975Z,6.92
2017-12-19T10:33:25.023Z,6.93
2017-12-19T10:34:24.444Z,7.05
2017-12-19T10:35:24.738Z,7.03
2017-12-19T10:36:25.019Z,7.1
2017-12-19T10:37:24.755Z,7.06
2017-12-19T10:38:24.493Z,7.02
2017-12-19T10:39:25.056Z,7.11
2017-12-19T10:40:24.789Z,7.14
2017-12-19T10:41:24.799Z,7.06
2017-12-19T10:42:25.092Z,7.17
2017-12-19T10:43:25.106Z,7.21
2017-12-19T10:44:24.890Z,7.15
2017-12-19T10:45:25.213Z,7.18
2017-12-19T10:46:24.867Z,7.11
2017-12-19T10:47:25.155Z,7.23
2017-12-19T10:48:24.885Z,7.13
2017-12-19T10:49:25.168Z,7.2
2017-12-19T10:50:25.187Z,7.24
2017-12-19T10:51:24.918Z,7.33
2017-12-19T10:52:25.210Z,7.33
2017-12-19T10:53:24.963Z,7.32
2017-12-19T10:54:25.277Z,7.31
2017-12-19T10:55:25.248Z,7.31
2017-12-19T10:56:25.251Z,7.28
2017-12-19T10:57:24.989Z,7.28
2017-12-19T10:58:25.278Z,7.24
2017-12-19T10:59:25.290Z,7.28
2017-12-19T11:00:25.300Z,7.24
2017-12-19T11:01:25.314Z,7.24
2017-12-19T11:02:25.361Z,7.35
2017-12-19T11:03:25.343Z,7.21
2017-12-19T11:04:25.119Z,7.31
2017-12-19T11:05:25.363Z,7.31
2017-12-19T11:06:25.095Z,7.18
2017-12-19T11:07:25.111Z,7.23
2017-12-19T11:08:25.125Z,7.24
2017-12-19T11:09:25.459Z,7.2
2017-12-19T11:10:25.417Z,7.11
2017-12-19T11:11:25.150Z,7.18
2017-12-19T11:12:25.170Z,7.17
2017-12-19T11:13:25.461Z,7.23
2017-12-19T11:14:25.513Z,7.14
2017-12-19T11:15:25.474Z,7.17
2017-12-19T11:16:25.210Z,7.2
2017-12-19T11:17:25.228Z,7.21
2017-12-19T11:18:25.512Z,7.06
2017-12-19T11:19:25.526Z,7.18
2017-12-19T11:20:25.538Z,7.18
2017-12-19T11:21:25.278Z,7.15
2017-12-19T11:22:25.564Z,7.1
2017-12-19T11:23:25.297Z,7.18
2017-12-19T11:24:25.658Z,7.18
2017-12-19T11:25:25.602Z,7.18
2017-12-19T11:26:25.329Z,7.15
2017-12-19T11:27:25.341Z,7.17
2017-12-19T11:28:25.354Z,7.21
2017-12-19T11:29:25.695Z,7.1
2017-12-19T11:30:25.660Z,7.14
2017-12-19T11:31:25.113Z,7.13
2017-12-19T11:32:25.674Z,7.07
2017-12-19T11:33:25.686Z,7.07
2017-12-19T11:34:25.748Z,7.06
2017-12-19T11:35:25.716Z,7.06
2017-12-19T11:36:25.724Z,7.06
2017-12-19T11:37:25.458Z,7.06
2017-12-19T11:38:25.470Z,7.03
2017-12-19T11:39:25.532Z,7.05
2017-12-19T11:40:25.494Z,7.03
2017-12-19T11:41:25.783Z,7.03
2017-12-19T11:42:25.576Z,7
2017-12-19T11:43:25.814Z,7.03
2017-12-19T11:44:25.263Z,7.06
2017-12-19T11:45:25.829Z,7.07
2017-12-19T11:46:25.840Z,7.02
2017-12-19T11:47:25.576Z,7.05
2017-12-19T11:48:25.862Z,7.03
2017-12-19T11:49:25.878Z,7.03
2017-12-19T11:50:25.611Z,7.13
2017-12-19T11:51:25.905Z,7.05
2017-12-19T11:52:25.914Z,7.03
2017-12-19T11:53:25.922Z,7.02
2017-12-19T11:54:26.003Z,7.1
2017-12-19T11:55:25.947Z,7.03
2017-12-19T11:56:25.682Z,7.03
2017-12-19T11:57:25.964Z,7.03
2017-12-19T11:58:25.980Z,7.03
2017-12-19T11:59:25.993Z,7.05
2017-12-19T12:00:25.727Z,7.05
2017-12-19T12:01:25.740Z,7.05
2017-12-19T12:02:25.754Z,7.11
2017-12-19T12:03:26.038Z,7
2017-12-19T12:04:26.053Z,7.06
2017-12-19T12:05:26.069Z,7.1
2017-12-19T12:06:26.078Z,7.05
2017-12-19T12:07:25.535Z,7.03
2017-12-19T12:08:25.819Z,7.11
2017-12-19T12:09:26.114Z,7.03
2017-12-19T12:10:26.123Z,7.02
2017-12-19T12:11:26.134Z,7.02
2017-12-19T12:12:25.871Z,7.05
2017-12-19T12:13:26.155Z,7
2017-12-19T12:14:25.894Z,7.11
2017-12-19T12:15:26.181Z,7.03
2017-12-19T12:16:25.925Z,7.02
2017-12-19T12:17:26.203Z,7.07
2017-12-19T12:18:25.664Z,7.1
2017-12-19T12:19:25.951Z,7.11
2017-12-19T12:20:26.246Z,7
2017-12-19T12:21:25.972Z,7.02
2017-12-19T12:22:25.709Z,7.07
2017-12-19T12:23:26.276Z,7.07
2017-12-19T12:24:26.287Z,7.05
2017-12-19T12:25:26.020Z,7
2017-12-19T12:26:26.308Z,7.06
2017-12-19T12:27:26.320Z,7.02
2017-12-19T12:28:26.335Z,7.03
2017-12-19T12:29:26.342Z,7.03
2017-12-19T12:30:26.360Z,7.06
2017-12-19T12:31:26.090Z,7
2017-12-19T12:32:26.106Z,7.03
2017-12-19T12:33:26.392Z,7.05
2017-12-19T12:34:26.410Z,7
2017-12-19T12:35:26.411Z,7.06
2017-12-19T12:36:26.428Z,7.05
2017-12-19T12:37:26.161Z,7.07
2017-12-19T12:38:26.185Z,6.89
2017-12-19T12:39:25.909Z,7.05
2017-12-19T12:40:26.522Z,6.97
2017-12-19T12:41:26.487Z,6.93
2017-12-19T12:42:26.496Z,6.92
2017-12-19T12:43:26.233Z,7.06
2017-12-19T12:44:26.519Z,7.06
2017-12-19T12:45:26.584Z,7.06
2017-12-19T12:46:26.543Z,6.99
2017-12-19T12:47:26.554Z,7.05
2017-12-19T12:48:26.566Z,6.99
2017-12-19T12:49:26.304Z,6.93
2017-12-19T12:50:26.317Z,7.03
2017-12-19T12:51:26.051Z,7.02
2017-12-19T12:52:26.338Z,7.11
2017-12-19T12:53:26.074Z,7.03
2017-12-19T12:54:26.641Z,7.05
2017-12-19T12:55:26.427Z,7.06
2017-12-19T12:56:26.662Z,7.06
2017-12-19T12:57:26.396Z,7.03
2017-12-19T12:58:26.686Z,7.11
2017-12-19T12:59:26.702Z,6.96
2017-12-19T13:00:26.437Z,7.02
2017-12-19T13:01:26.443Z,7
2017-12-19T13:02:26.727Z,7.06
2017-12-19T13:03:26.742Z,7.11
2017-12-19T13:04:26.753Z,7.03
2017-12-19T13:05:26.536Z,7.02
2017-12-19T13:06:26.781Z,6.99
2017-12-19T13:07:26.789Z,7.03
2017-12-19T13:08:26.523Z,7.13
2017-12-19T13:09:26.816Z,7.03
2017-12-19T13:10:26.824Z,7.03
2017-12-19T13:11:26.560Z,7.05
2017-12-19T13:12:26.848Z,7.03
2017-12-19T13:13:26.588Z,7.06
2017-12-19T13:14:26.878Z,7.13
2017-12-19T13:15:26.882Z,7.03
2017-12-19T13:16:26.900Z,7.02
2017-12-19T13:17:26.905Z,6.99
2017-12-19T13:18:26.643Z,6.93
2017-12-19T13:19:26.650Z,6.92
2017-12-19T13:20:26.941Z,6.95
2017-12-19T13:21:26.953Z,7.02